Wind Star — C6CA9 — position and weather

sailwx.info

Track history (hours):
 
Tides and Currents Weather Stations Pressure Air Temp Water Temp Dewpoint Dewpoint Depression Visibility Wind Speed Wind Dir Waves Ship Positions

Wind Star

Operator: Holland America Line

Last reported at 2014-Jul-25 06:33 UTC. Time now 2014-Jul-25 06:50 UTC.
Position N 37°27' E 025°19'.

Length 135 m; draft 4.1 m.

Type: Ship. MMSI: 309163000.

Date/timePositionNaut miles runAvg speedWind from/ knotsBaromVisibWave heightAir tempDewpointWater temp
2014-Jul-25 06:33N 37°27' E 025°19'0 0.0
2014-Jul-25 05:33N 37°27' E 025°19'0 0.0
2014-Jul-25 04:33N 37°27' E 025°19'2 1.6
2014-Jul-25 03:33N 37°26' E 025°17'6 6.5
2014-Jul-25 02:34N 37°20' E 025°18'7 6.5
2014-Jul-25 01:33N 37°13' E 025°19'6 6.4
2014-Jul-25 00:33N 37°07' E 025°19'7 7.2
2014-Jul-24 23:34N 36°60' E 025°18'6 6.5
2014-Jul-24 22:33N 36°54' E 025°16'7 6.7
2014-Jul-24 21:33N 36°48' E 025°11'7 7.0
2014-Jul-24 20:34N 36°42' E 025°13'7 7.2
2014-Jul-24 19:33N 36°35' E 025°17'7 6.9
2014-Jul-24 18:33N 36°29' E 025°21'5 4.4
2014-Jul-24 17:23N 36°25' E 025°25'0 0.0
2014-Jul-24 16:29N 36°25' E 025°25'0 0.0
2014-Jul-24 15:29N 36°25' E 025°25'0 0.0
2014-Jul-24 14:23N 36°25' E 025°25'0 0.0
2014-Jul-24 13:29N 36°25' E 025°25'0 0.0
2014-Jul-24 12:23N 36°25' E 025°25'0 0.0
2014-Jul-24 11:29N 36°25' E 025°25'0 0.0
2014-Jul-24 10:17N 36°25' E 025°25'0 0.0
2014-Jul-24 09:29N 36°25' E 025°25'0 0.0
2014-Jul-24 08:29N 36°25' E 025°25'0 0.0
2014-Jul-24 07:29N 36°25' E 025°25'0 0.0
2014-Jul-24 06:29N 36°25' E 025°25'0 0.0
2014-Jul-24 05:29N 36°25' E 025°25'0 0.0
2014-Jul-24 04:29N 36°25' E 025°25'6 6.1
2014-Jul-24 03:33N 36°30' E 025°22'9 9.0
2014-Jul-24 02:33N 36°33' E 025°32'8 8.0
2014-Jul-24 01:33N 36°35' E 025°42'9 8.5
2014-Jul-24 00:33N 36°37' E 025°52'9 8.5
2014-Jul-23 23:32N 36°40' E 026°02'9 8.7
2014-Jul-23 22:29N 36°42' E 026°13'8 8.2
2014-Jul-23 21:33N 36°44' E 026°22'52 2.4
2014-Jul-23 00:27N 36°37' E 027°26'28 9.3
2014-Jul-22 21:26N 36°26' E 027°58'71 3.3
2014-Jul-21 23:33N 37°17' E 026°56'117 3.5
2014-Jul-20 14:30N 39°01' E 025°49'  
Track history (hours):
 
Tides and Currents Weather Stations Pressure Air Temp Water Temp Dewpoint Dewpoint Depression Visibility Wind Speed Wind Dir Waves Ship Positions

Wind Star

Operator: Holland America Line

Last reported at 2014-Jul-25 06:33 UTC. Time now 2014-Jul-25 06:50 UTC.
Position N 37°27' E 025°19'.

Length 135 m; draft 4.1 m.

Type: Ship. MMSI: 309163000.

Date/timePositionNaut miles runAvg speedWind from/ knotsBaromVisibWave heightAir tempDewpointWater temp
2014-Jul-25 06:33N 37°27' E 025°19'0 0.0
2014-Jul-25 05:33N 37°27' E 025°19'0 0.0
2014-Jul-25 04:33N 37°27' E 025°19'2 1.6
2014-Jul-25 03:33N 37°26' E 025°17'6 6.5
2014-Jul-25 02:34N 37°20' E 025°18'7 6.5
2014-Jul-25 01:33N 37°13' E 025°19'6 6.4
2014-Jul-25 00:33N 37°07' E 025°19'7 7.2
2014-Jul-24 23:34N 36°60' E 025°18'6 6.5
2014-Jul-24 22:33N 36°54' E 025°16'7 6.7
2014-Jul-24 21:33N 36°48' E 025°11'7 7.0
2014-Jul-24 20:34N 36°42' E 025°13'7 7.2
2014-Jul-24 19:33N 36°35' E 025°17'7 6.9
2014-Jul-24 18:33N 36°29' E 025°21'5 4.4
2014-Jul-24 17:23N 36°25' E 025°25'0 0.0
2014-Jul-24 16:29N 36°25' E 025°25'0 0.0
2014-Jul-24 15:29N 36°25' E 025°25'0 0.0
2014-Jul-24 14:23N 36°25' E 025°25'0 0.0
2014-Jul-24 13:29N 36°25' E 025°25'0 0.0
2014-Jul-24 12:23N 36°25' E 025°25'0 0.0
2014-Jul-24 11:29N 36°25' E 025°25'0 0.0
2014-Jul-24 10:17N 36°25' E 025°25'0 0.0
2014-Jul-24 09:29N 36°25' E 025°25'0 0.0
2014-Jul-24 08:29N 36°25' E 025°25'0 0.0
2014-Jul-24 07:29N 36°25' E 025°25'0 0.0
2014-Jul-24 06:29N 36°25' E 025°25'0 0.0
2014-Jul-24 05:29N 36°25' E 025°25'0 0.0
2014-Jul-24 04:29N 36°25' E 025°25'6 6.1
2014-Jul-24 03:33N 36°30' E 025°22'9 9.0
2014-Jul-24 02:33N 36°33' E 025°32'8 8.0
2014-Jul-24 01:33N 36°35' E 025°42'9 8.5
2014-Jul-24 00:33N 36°37' E 025°52'9 8.5
2014-Jul-23 23:32N 36°40' E 026°02'9 8.7
2014-Jul-23 22:29N 36°42' E 026°13'8 8.2
2014-Jul-23 21:33N 36°44' E 026°22'52 2.4
2014-Jul-23 00:27N 36°37' E 027°26'28 9.3
2014-Jul-22 21:26N 36°26' E 027°58'71 3.3
2014-Jul-21 23:33N 37°17' E 026°56'117 3.5
2014-Jul-20 14:30N 39°01' E 025°49'  

Dump ship's entire track history